createdAt,value
2022-09-02T00:00:47.785Z,50.12
2022-09-02T00:03:14.328Z,50.10
2022-09-02T00:05:40.552Z,50.09
2022-09-02T00:08:06.939Z,50.07
2022-09-02T00:10:33.320Z,50.11
2022-09-02T00:12:59.713Z,50.13
2022-09-02T00:15:26.113Z,50.14
2022-09-02T00:17:52.517Z,50.13
2022-09-02T00:20:21.304Z,50.03
2022-09-02T00:22:47.677Z,50.10
2022-09-02T00:25:14.067Z,50.11
2022-09-02T00:27:40.455Z,50.10
2022-09-02T00:30:06.836Z,50.15
2022-09-02T00:32:33.252Z,50.03
2022-09-02T00:34:59.639Z,50.02
2022-09-02T00:37:26.016Z,50.03
2022-09-02T00:39:52.410Z,50.00
2022-09-02T00:42:18.793Z,49.98
2022-09-02T00:44:45.172Z,50.01
2022-09-02T00:47:11.554Z,49.99
2022-09-02T00:49:37.936Z,50.00
2022-09-02T00:52:04.321Z,50.00
2022-09-02T00:54:30.700Z,49.97
2022-09-02T00:56:57.089Z,50.04
2022-09-02T00:59:23.467Z,49.97
2022-09-02T01:01:50.047Z,49.93
2022-09-02T01:04:16.230Z,49.99
2022-09-02T01:06:42.638Z,49.94
2022-09-02T01:09:09.016Z,49.93
2022-09-02T01:11:35.402Z,49.90
2022-09-02T01:14:01.807Z,49.93
2022-09-02T01:16:28.352Z,49.90
2022-09-02T01:18:54.601Z,49.89
2022-09-02T01:21:21.034Z,49.97
2022-09-02T01:23:47.420Z,49.88
2022-09-02T01:26:13.802Z,50.00
2022-09-02T01:28:40.188Z,49.94
2022-09-02T01:31:06.626Z,49.87
2022-09-02T01:33:32.959Z,49.89
2022-09-02T01:35:59.345Z,49.91
2022-09-02T01:38:25.735Z,49.84
2022-09-02T01:40:52.159Z,49.84
2022-09-02T01:43:18.522Z,49.86
2022-09-02T01:45:44.890Z,49.84
2022-09-02T01:48:11.276Z,49.85
2022-09-02T01:50:37.657Z,49.93
2022-09-02T01:53:04.159Z,49.87
2022-09-02T01:55:30.588Z,49.86
2022-09-02T01:57:56.970Z,49.83
2022-09-02T02:00:23.352Z,49.85
2022-09-02T02:02:49.751Z,49.85
2022-09-02T02:05:16.224Z,49.88
2022-09-02T02:07:42.640Z,49.74
2022-09-02T02:10:09.025Z,49.32
2022-09-02T02:12:35.521Z,48.63
2022-09-02T02:15:01.913Z,48.23
2022-09-02T02:17:28.285Z,48.26
2022-09-02T02:19:54.669Z,48.18
2022-09-02T02:22:21.053Z,48.15
2022-09-02T02:24:47.438Z,48.22
2022-09-02T02:27:13.852Z,48.13
2022-09-02T02:29:40.247Z,48.20
2022-09-02T02:32:06.628Z,48.26
2022-09-02T02:34:33.045Z,48.28
2022-09-02T02:36:59.428Z,48.33
2022-09-02T02:39:25.809Z,48.42
2022-09-02T02:41:52.198Z,48.51
2022-09-02T02:44:18.606Z,48.58
2022-09-02T02:46:45.051Z,48.68
2022-09-02T02:49:11.371Z,48.78
2022-09-02T02:51:37.765Z,49.00
2022-09-02T02:54:04.182Z,49.09
2022-09-02T02:56:30.569Z,49.18
2022-09-02T02:58:56.958Z,49.39
2022-09-02T03:01:23.352Z,49.61
2022-09-02T03:03:49.721Z,49.67
2022-09-02T03:06:16.106Z,49.90
2022-09-02T03:08:42.490Z,49.97
2022-09-02T03:11:08.873Z,50.10
2022-09-02T03:13:35.251Z,50.18
2022-09-02T03:16:01.879Z,50.26
2022-09-02T03:18:28.152Z,50.42
2022-09-02T03:20:54.577Z,50.49
2022-09-02T03:23:21.177Z,50.55
2022-09-02T03:25:47.499Z,50.64
2022-09-02T03:28:13.882Z,50.71
2022-09-02T03:30:40.263Z,50.78
2022-09-02T03:33:06.650Z,50.76
2022-09-02T03:35:33.031Z,50.75
2022-09-02T03:37:59.418Z,50.80
2022-09-02T03:40:25.827Z,50.75
2022-09-02T03:42:54.634Z,50.80
2022-09-02T03:45:18.576Z,50.79
2022-09-02T03:47:44.962Z,50.75
2022-09-02T03:50:11.346Z,50.67
2022-09-02T03:52:37.727Z,50.63
2022-09-02T03:55:04.109Z,50.61
2022-09-02T03:57:30.524Z,50.62
2022-09-02T03:59:56.901Z,50.59
2022-09-02T04:02:23.405Z,50.61
2022-09-02T04:04:49.659Z,50.68
2022-09-02T04:07:16.149Z,53.98
2022-09-02T04:09:46.613Z,53.33
2022-09-02T04:12:08.933Z,51.99
2022-09-02T04:14:35.322Z,51.35
2022-09-02T04:17:01.702Z,51.22
2022-09-02T04:19:28.091Z,51.18
2022-09-02T04:21:54.469Z,50.97
2022-09-02T04:24:20.855Z,50.87
2022-09-02T04:26:47.240Z,50.70
2022-09-02T04:29:13.625Z,50.68
2022-09-02T04:31:40.091Z,50.66
2022-09-02T04:34:06.478Z,50.62
2022-09-02T04:36:32.882Z,50.52
2022-09-02T04:38:59.296Z,50.51
2022-09-02T04:41:25.680Z,50.54
2022-09-02T04:43:52.065Z,50.43
2022-09-02T04:46:18.476Z,50.42
2022-09-02T04:48:44.824Z,50.48
2022-09-02T04:51:11.281Z,50.43
2022-09-02T04:53:37.656Z,50.42
2022-09-02T04:56:05.018Z,50.42
2022-09-02T04:58:30.429Z,50.45
2022-09-02T05:00:56.805Z,50.37
2022-09-02T05:03:23.470Z,50.42
2022-09-02T05:05:49.699Z,50.42
2022-09-02T05:08:16.107Z,50.38
2022-09-02T05:10:42.491Z,50.34
2022-09-02T05:13:08.887Z,50.39
2022-09-02T05:15:35.278Z,50.21
2022-09-02T05:18:01.656Z,50.54
2022-09-02T05:20:28.131Z,50.32
2022-09-02T05:22:54.540Z,50.42
2022-09-02T05:25:20.921Z,50.30
2022-09-02T05:27:47.308Z,50.07
2022-09-02T05:30:13.691Z,50.13
2022-09-02T05:32:40.097Z,50.00
2022-09-02T05:35:08.484Z,49.90
2022-09-02T05:37:32.918Z,49.86
2022-09-02T05:39:59.297Z,49.74
2022-09-02T05:42:26.923Z,49.84
2022-09-02T05:44:52.152Z,49.68
2022-09-02T05:47:18.536Z,50.13
2022-09-02T05:49:44.919Z,49.87
2022-09-02T05:52:11.331Z,49.75
2022-09-02T05:54:37.715Z,49.56
2022-09-02T05:57:04.116Z,49.36
2022-09-02T05:59:30.510Z,49.58
2022-09-02T06:01:57.260Z,49.12
2022-09-02T06:04:23.595Z,49.63
2022-09-02T06:06:49.985Z,49.64
2022-09-02T06:09:16.369Z,49.16
2022-09-02T06:11:42.756Z,48.97
2022-09-02T06:14:09.251Z,49.23
2022-09-02T06:16:35.654Z,49.41
2022-09-02T06:19:02.038Z,49.36
2022-09-02T06:21:28.423Z,49.29
2022-09-02T06:23:54.803Z,49.22
2022-09-02T06:26:21.214Z,49.19
2022-09-02T06:28:47.614Z,49.23
2022-09-02T06:31:14.112Z,49.29
2022-09-02T06:33:40.424Z,49.41
2022-09-02T06:36:06.809Z,49.49
2022-09-02T06:38:33.261Z,49.62
2022-09-02T06:40:59.651Z,49.47
2022-09-02T06:43:26.049Z,49.56
2022-09-02T06:45:52.463Z,49.95
2022-09-02T06:48:18.846Z,50.13
2022-09-02T06:50:45.242Z,50.10
2022-09-02T06:53:11.636Z,50.03
2022-09-02T06:55:38.044Z,50.20
2022-09-02T06:58:04.427Z,50.02
2022-09-02T07:00:30.808Z,49.96
2022-09-02T07:02:58.891Z,50.03
2022-09-02T07:05:23.602Z,49.98
2022-09-02T07:07:50.025Z,49.83
2022-09-02T07:10:16.507Z,49.62
2022-09-02T07:12:44.488Z,49.70
2022-09-02T07:15:09.371Z,50.20
2022-09-02T07:17:35.758Z,50.18
2022-09-02T07:20:02.143Z,50.30
2022-09-02T07:22:28.570Z,50.39
2022-09-02T07:24:55.001Z,50.48
2022-09-02T07:27:21.352Z,50.42
2022-09-02T07:29:47.741Z,50.36
2022-09-02T07:32:15.560Z,50.34
2022-09-02T07:34:40.633Z,50.13
2022-09-02T07:37:10.681Z,50.16
2022-09-02T07:39:33.421Z,50.14
2022-09-02T07:41:59.832Z,50.15
2022-09-02T07:44:26.236Z,50.18
2022-09-02T07:46:52.701Z,50.07
2022-09-02T07:49:23.805Z,50.11
2022-09-02T07:51:45.485Z,50.00
2022-09-02T07:54:13.549Z,49.91
2022-09-02T07:56:38.328Z,49.96
2022-09-02T07:59:04.709Z,49.93
2022-09-02T08:01:31.237Z,49.92
2022-09-02T08:03:59.386Z,50.02
2022-09-02T08:06:33.620Z,50.15
2022-09-02T08:08:50.345Z,49.93
2022-09-02T08:11:16.745Z,49.90
2022-09-02T08:13:43.128Z,50.31
2022-09-02T08:16:09.542Z,50.19
2022-09-02T08:18:37.705Z,50.36
2022-09-02T08:21:02.316Z,50.06
2022-09-02T08:23:37.452Z,50.28
2022-09-02T08:25:55.122Z,50.40
2022-09-02T08:28:21.549Z,50.21
2022-09-02T08:30:47.956Z,50.26
2022-09-02T08:33:14.445Z,50.26
2022-09-02T08:35:40.792Z,50.36
2022-09-02T08:38:07.169Z,50.35
2022-09-02T08:40:33.634Z,50.22
2022-09-02T08:42:59.946Z,50.30
2022-09-02T08:45:26.399Z,50.22
2022-09-02T08:47:52.749Z,50.01
2022-09-02T08:50:19.143Z,50.09
2022-09-02T08:52:45.513Z,50.13
2022-09-02T08:55:11.948Z,50.10
2022-09-02T08:57:38.483Z,50.08
2022-09-02T09:00:04.840Z,50.06
2022-09-02T09:02:31.264Z,50.09
2022-09-02T09:04:57.641Z,49.92
2022-09-02T09:07:24.068Z,50.07
2022-09-02T09:09:50.428Z,50.16
2022-09-02T09:12:16.813Z,49.97
2022-09-02T09:14:43.196Z,50.00
2022-09-02T09:17:09.575Z,49.82
2022-09-02T09:19:35.957Z,49.87
2022-09-02T09:22:02.343Z,49.93
2022-09-02T09:24:28.725Z,49.84
2022-09-02T09:26:55.111Z,49.69
2022-09-02T09:29:21.554Z,49.65
2022-09-02T09:31:47.986Z,49.64
2022-09-02T09:34:14.312Z,49.73
2022-09-02T09:36:40.727Z,49.78
2022-09-02T09:39:07.127Z,49.81
2022-09-02T09:41:33.518Z,49.56
2022-09-02T09:43:59.904Z,49.60
2022-09-02T09:46:26.288Z,49.67
2022-09-02T09:48:52.689Z,49.79
2022-09-02T09:51:19.078Z,49.71
2022-09-02T09:53:45.468Z,49.77
2022-09-02T09:56:11.856Z,49.48
2022-09-02T09:58:38.235Z,49.29
2022-09-02T10:01:04.703Z,49.58
2022-09-02T10:03:33.024Z,49.96
2022-09-02T10:05:57.426Z,50.08
2022-09-02T10:08:23.826Z,50.25
2022-09-02T10:10:50.222Z,50.35
2022-09-02T10:13:16.613Z,50.36
2022-09-02T10:15:42.999Z,50.54
2022-09-02T10:18:09.387Z,50.46
2022-09-02T10:20:37.129Z,50.86
2022-09-02T10:23:02.183Z,50.93
2022-09-02T10:25:28.615Z,50.99
2022-09-02T10:27:54.979Z,50.86
2022-09-02T10:30:21.361Z,50.67
2022-09-02T10:32:47.752Z,50.76
2022-09-02T10:35:14.217Z,50.79
2022-09-02T10:37:40.607Z,50.97
2022-09-02T10:40:07.059Z,51.10
2022-09-02T10:42:33.392Z,50.93
2022-09-02T10:44:59.802Z,51.09
2022-09-02T10:47:30.162Z,51.26
2022-09-02T10:49:52.601Z,51.14
2022-09-02T10:52:18.999Z,51.37
2022-09-02T10:54:45.385Z,51.11
2022-09-02T10:57:11.815Z,51.24
2022-09-02T10:59:38.201Z,51.45
2022-09-02T11:02:04.585Z,51.54
2022-09-02T11:04:30.960Z,51.55
2022-09-02T11:07:04.590Z,51.90
2022-09-02T11:09:23.779Z,51.81
2022-09-02T11:11:50.152Z,51.88
2022-09-02T11:14:16.638Z,51.99
2022-09-02T11:16:43.042Z,51.98
2022-09-02T11:19:09.430Z,52.14
2022-09-02T11:21:35.830Z,51.89
2022-09-02T11:24:02.233Z,51.83
2022-09-02T11:26:28.627Z,51.80
2022-09-02T11:28:55.008Z,51.93
2022-09-02T11:31:22.660Z,51.54
2022-09-02T11:33:47.834Z,51.45
2022-09-02T11:36:14.222Z,51.64
2022-09-02T11:38:40.614Z,51.62
2022-09-02T11:43:33.387Z,51.74
2022-09-02T11:45:59.847Z,51.91
2022-09-02T11:48:26.184Z,52.27
2022-09-02T11:50:52.587Z,52.44
2022-09-02T11:53:19.094Z,52.06
2022-09-02T11:55:45.394Z,51.86
2022-09-02T11:58:11.798Z,51.69
2022-09-02T12:00:38.263Z,51.54
2022-09-02T12:03:11.887Z,51.17
2022-09-02T12:05:31.211Z,51.36
2022-09-02T12:07:57.522Z,51.38
2022-09-02T12:10:23.918Z,51.48
2022-09-02T12:12:51.994Z,51.62
2022-09-02T12:15:16.701Z,52.06
2022-09-02T12:17:43.098Z,52.19
2022-09-02T12:20:09.613Z,52.16
2022-09-02T12:22:35.904Z,52.28
2022-09-02T12:25:04.720Z,52.28
2022-09-02T12:27:28.746Z,52.44
2022-09-02T12:29:55.226Z,52.67
2022-09-02T12:32:21.538Z,52.67
2022-09-02T12:34:47.925Z,52.73
2022-09-02T12:37:14.313Z,52.67
2022-09-02T12:39:40.709Z,52.25
2022-09-02T12:42:07.106Z,52.52
2022-09-02T12:44:34.598Z,52.17
2022-09-02T12:47:01.094Z,52.29
2022-09-02T12:49:27.375Z,51.87
2022-09-02T12:51:53.767Z,51.91
2022-09-02T12:54:20.159Z,51.75
2022-09-02T12:56:46.539Z,51.44
2022-09-02T12:59:12.930Z,51.58
2022-09-02T13:01:39.595Z,52.00
2022-09-02T13:04:05.822Z,51.96
2022-09-02T13:06:32.200Z,51.93
2022-09-02T13:08:58.627Z,52.04
2022-09-02T13:11:25.039Z,52.04
2022-09-02T13:13:51.423Z,51.85
2022-09-02T13:16:18.726Z,51.88
2022-09-02T13:18:44.232Z,51.63
2022-09-02T13:21:10.688Z,51.63
2022-09-02T13:23:37.122Z,51.67
2022-09-02T13:26:03.529Z,51.48
2022-09-02T13:28:29.912Z,51.49
2022-09-02T13:30:56.329Z,51.39
2022-09-02T13:33:22.748Z,51.45
2022-09-02T13:35:49.064Z,51.42
2022-09-02T13:38:17.426Z,51.25
2022-09-02T13:40:43.779Z,51.19
2022-09-02T13:43:08.245Z,51.08
2022-09-02T13:45:34.668Z,50.68
2022-09-02T13:48:01.039Z,51.04
2022-09-02T13:50:27.416Z,50.95
2022-09-02T13:55:20.208Z,50.85
2022-09-02T13:57:46.667Z,50.77
2022-09-02T14:00:13.156Z,50.84
2022-09-02T14:02:41.583Z,50.94
2022-09-02T14:05:05.880Z,50.80
2022-09-02T14:07:32.271Z,50.74
2022-09-02T14:09:58.665Z,50.27
2022-09-02T14:12:25.057Z,50.32
2022-09-02T14:14:51.432Z,50.31
2022-09-02T14:17:17.940Z,49.64
2022-09-02T14:19:44.329Z,49.74
2022-09-02T14:22:10.729Z,49.94
2022-09-02T14:24:37.111Z,49.68
2022-09-02T14:27:03.565Z,49.55
2022-09-02T14:29:30.048Z,49.55
2022-09-02T14:31:56.413Z,49.36
2022-09-02T14:34:23.141Z,49.23
2022-09-02T14:36:49.533Z,49.39
2022-09-02T14:39:15.973Z,49.09
2022-09-02T14:41:42.311Z,49.06
2022-09-02T14:44:08.702Z,48.97
2022-09-02T14:46:35.131Z,49.03
2022-09-02T14:49:01.469Z,49.07
2022-09-02T14:51:27.868Z,48.84
2022-09-02T14:53:54.249Z,49.19
2022-09-02T14:56:23.987Z,49.61
2022-09-02T14:58:50.479Z,49.61
2022-09-02T15:01:16.934Z,49.63
2022-09-02T15:03:43.370Z,49.80
2022-09-02T15:06:14.503Z,49.86
2022-09-02T15:08:36.151Z,49.90
2022-09-02T15:11:02.548Z,49.93
2022-09-02T15:13:28.938Z,50.09
2022-09-02T15:15:55.506Z,50.08
2022-09-02T15:18:21.976Z,50.15
2022-09-02T15:20:48.362Z,50.19
2022-09-02T15:23:14.835Z,50.35
2022-09-02T15:25:41.122Z,50.09
2022-09-02T15:28:07.500Z,50.25
2022-09-02T15:30:33.924Z,50.24
2022-09-02T15:33:00.307Z,50.33
2022-09-02T15:35:26.707Z,50.42
2022-09-02T15:37:53.084Z,50.42
2022-09-02T15:40:19.475Z,50.35
2022-09-02T15:42:45.848Z,50.39
2022-09-02T15:45:12.239Z,50.41
2022-09-02T15:47:38.671Z,50.46
2022-09-02T15:50:07.501Z,50.69
2022-09-02T15:52:31.467Z,50.64
2022-09-02T15:54:57.846Z,50.72
2022-09-02T15:57:24.233Z,50.75
2022-09-02T15:59:50.620Z,50.68
2022-09-02T16:02:17.030Z,50.76
2022-09-02T16:04:43.466Z,50.59
2022-09-02T16:07:09.882Z,50.59
2022-09-02T16:09:36.296Z,50.52
2022-09-02T16:12:02.688Z,50.54
2022-09-02T16:14:29.070Z,50.48
2022-09-02T16:16:58.500Z,50.48
2022-09-02T16:19:24.771Z,50.41
2022-09-02T16:21:51.155Z,50.39
2022-09-02T16:24:17.531Z,50.37
2022-09-02T16:26:43.914Z,50.38
2022-09-02T16:29:10.295Z,50.48
2022-09-02T16:31:36.671Z,50.42
2022-09-02T16:34:03.050Z,50.47
2022-09-02T16:36:33.233Z,50.50
2022-09-02T16:38:55.823Z,50.33
2022-09-02T16:41:22.201Z,50.37
2022-09-02T16:43:48.588Z,50.31
2022-09-02T16:46:15.047Z,50.27
2022-09-02T16:48:41.371Z,50.18
2022-09-02T16:51:07.757Z,50.15
2022-09-02T16:53:34.145Z,50.11
2022-09-02T16:56:00.528Z,50.18
2022-09-02T16:58:26.913Z,50.05
2022-09-02T17:00:53.323Z,49.97
2022-09-02T17:03:19.694Z,49.93
2022-09-02T17:05:46.070Z,49.92
2022-09-02T17:08:12.479Z,49.88
2022-09-02T17:10:38.908Z,49.93
2022-09-02T17:13:05.306Z,49.89
2022-09-02T17:15:31.690Z,49.82
2022-09-02T17:17:58.151Z,49.81
2022-09-02T17:20:24.478Z,49.88
2022-09-02T17:22:50.918Z,49.87
2022-09-02T17:25:17.310Z,49.82
2022-09-02T17:27:43.703Z,49.78
2022-09-02T17:30:10.086Z,49.78
2022-09-02T17:32:36.531Z,49.87
2022-09-02T17:35:02.908Z,49.76
2022-09-02T17:37:29.296Z,49.82
2022-09-02T17:39:55.722Z,49.80
2022-09-02T17:42:22.050Z,49.83
2022-09-02T17:44:48.435Z,49.83
2022-09-02T17:47:14.819Z,49.81
2022-09-02T17:49:41.201Z,49.81
2022-09-02T17:52:07.759Z,49.81
2022-09-02T17:54:33.965Z,49.82
2022-09-02T17:57:00.395Z,49.67
2022-09-02T17:59:26.807Z,49.82
2022-09-02T18:01:53.192Z,49.84
2022-09-02T18:04:19.647Z,49.89
2022-09-02T18:06:46.030Z,49.77
2022-09-02T18:09:12.405Z,49.74
2022-09-02T18:11:38.798Z,49.73
2022-09-02T18:14:05.175Z,49.71
2022-09-02T18:16:31.600Z,49.68
2022-09-02T18:18:57.936Z,49.62
2022-09-02T18:21:24.322Z,49.62
2022-09-02T18:23:50.705Z,49.61
2022-09-02T18:26:17.112Z,49.62
2022-09-02T18:28:43.492Z,49.62
2022-09-02T18:31:09.905Z,49.59
2022-09-02T18:33:36.262Z,49.66
2022-09-02T18:36:02.744Z,49.59
2022-09-02T18:38:29.129Z,49.69
2022-09-02T18:40:55.514Z,49.69
2022-09-02T18:43:21.904Z,49.68
2022-09-02T18:45:48.343Z,49.81
2022-09-02T18:48:14.715Z,49.73
2022-09-02T18:50:51.338Z,49.81
2022-09-02T18:53:07.573Z,49.87
2022-09-02T18:55:33.944Z,49.79
2022-09-02T18:58:00.338Z,49.86
2022-09-02T19:00:26.708Z,49.84
2022-09-02T19:02:53.205Z,49.90
2022-09-02T19:05:19.612Z,49.90
2022-09-02T19:07:45.992Z,49.97
2022-09-02T19:10:12.375Z,49.97
2022-09-02T19:12:38.835Z,50.05
2022-09-02T19:15:05.205Z,50.00
2022-09-02T19:17:31.604Z,49.97
2022-09-02T19:19:57.988Z,50.06
2022-09-02T19:22:24.375Z,50.06
2022-09-02T19:24:50.761Z,50.10
2022-09-02T19:27:17.135Z,50.14
2022-09-02T19:29:43.520Z,50.15
2022-09-02T19:32:09.952Z,50.03
2022-09-02T19:34:36.280Z,50.22
2022-09-02T19:37:02.667Z,50.23
2022-09-02T19:39:29.080Z,50.22
2022-09-02T19:41:55.431Z,50.15
2022-09-02T19:44:21.810Z,50.32
2022-09-02T19:49:14.583Z,50.26
2022-09-02T19:51:40.967Z,50.35
2022-09-02T19:54:07.350Z,50.33
2022-09-02T19:56:33.740Z,50.32
2022-09-02T19:59:00.121Z,50.42
2022-09-02T20:01:26.546Z,50.29
2022-09-02T20:03:52.894Z,50.30
2022-09-02T20:06:19.274Z,50.28
2022-09-02T20:08:45.711Z,50.45
2022-09-02T20:11:12.101Z,50.28
2022-09-02T20:13:41.282Z,50.45
2022-09-02T20:16:06.947Z,50.47
2022-09-02T20:18:31.237Z,50.39
2022-09-02T20:20:57.619Z,50.45
2022-09-02T20:23:24.002Z,50.33
2022-09-02T20:25:50.395Z,50.35
2022-09-02T20:28:16.778Z,50.30
2022-09-02T20:30:43.270Z,50.50
2022-09-02T20:33:09.653Z,50.34
2022-09-02T20:35:36.036Z,50.36
2022-09-02T20:38:02.465Z,50.36
2022-09-02T20:40:28.843Z,50.48
2022-09-02T20:42:55.335Z,50.41
2022-09-02T20:45:21.718Z,50.38
2022-09-02T20:47:48.097Z,50.37
2022-09-02T20:50:14.484Z,50.44
2022-09-02T20:52:40.864Z,50.43
2022-09-02T20:55:07.295Z,50.53
2022-09-02T20:57:33.669Z,50.42
2022-09-02T21:00:00.071Z,50.51
2022-09-02T21:02:26.529Z,50.44
2022-09-02T21:04:52.844Z,50.39
2022-09-02T21:07:19.222Z,50.55
2022-09-02T21:09:45.630Z,50.39
2022-09-02T21:12:12.035Z,50.45
2022-09-02T21:14:38.430Z,50.40
2022-09-02T21:17:04.803Z,50.36
2022-09-02T21:19:31.188Z,50.46
2022-09-02T21:21:57.565Z,50.38
2022-09-02T21:24:23.948Z,50.31
2022-09-02T21:26:50.325Z,50.32
2022-09-02T21:29:16.712Z,50.31
2022-09-02T21:31:43.136Z,50.48
2022-09-02T21:34:09.477Z,50.40
2022-09-02T21:36:35.865Z,50.45
2022-09-02T21:39:03.189Z,50.51
2022-09-02T21:41:28.635Z,50.78
2022-09-02T21:43:55.838Z,50.59
2022-09-02T21:46:21.445Z,50.59
2022-09-02T21:48:47.780Z,50.41
2022-09-02T21:51:14.158Z,50.50
2022-09-02T21:53:40.575Z,50.70
2022-09-02T21:56:06.960Z,50.61
2022-09-02T21:58:33.347Z,50.51
2022-09-02T22:00:59.752Z,50.64
2022-09-02T22:03:26.107Z,50.80
2022-09-02T22:05:52.488Z,50.67
2022-09-02T22:08:18.935Z,50.58
2022-09-02T22:10:45.263Z,50.48
2022-09-02T22:13:11.651Z,50.56
2022-09-02T22:15:38.163Z,50.58
2022-09-02T22:18:04.542Z,50.51
2022-09-02T22:20:30.930Z,50.61
2022-09-02T22:22:57.335Z,50.47
2022-09-02T22:25:23.712Z,50.66
2022-09-02T22:27:50.163Z,50.64
2022-09-02T22:30:16.545Z,50.51
2022-09-02T22:32:42.931Z,50.80
2022-09-02T22:35:09.338Z,50.48
2022-09-02T22:37:35.724Z,50.44
2022-09-02T22:40:02.132Z,50.51
2022-09-02T22:42:28.486Z,50.61
2022-09-02T22:44:54.874Z,50.32
2022-09-02T22:47:21.267Z,50.74
2022-09-02T22:49:47.638Z,50.55
2022-09-02T22:52:14.024Z,50.51
2022-09-02T22:54:40.400Z,50.62
2022-09-02T22:57:06.780Z,50.48
2022-09-02T22:59:33.181Z,50.53
2022-09-02T23:01:59.602Z,50.71
2022-09-02T23:04:25.946Z,50.61
2022-09-02T23:06:52.323Z,50.19
2022-09-02T23:09:18.712Z,50.39
2022-09-02T23:11:45.100Z,50.52
2022-09-02T23:14:11.486Z,50.44
2022-09-02T23:16:37.975Z,50.64
2022-09-02T23:19:04.361Z,50.29
2022-09-02T23:21:30.743Z,50.45
2022-09-02T23:23:57.124Z,50.42
2022-09-02T23:26:23.507Z,50.54
2022-09-02T23:28:49.879Z,50.46
2022-09-02T23:31:16.359Z,50.44
2022-09-02T23:33:42.665Z,50.08
2022-09-02T23:36:09.054Z,50.06
2022-09-02T23:38:35.432Z,50.44
2022-09-02T23:41:01.810Z,50.33
2022-09-02T23:43:28.213Z,50.51
2022-09-02T23:45:54.600Z,50.16
2022-09-02T23:48:20.980Z,50.15
2022-09-02T23:50:47.382Z,50.34
2022-09-02T23:53:13.760Z,50.34
2022-09-02T23:55:40.148Z,50.12
2022-09-02T23:58:06.529Z,50.11
